KSAT - San Antonio Intl, TX, US

Issued at 2332 UTC 05 Dec 2019
Updated at 0342 UTC 06 Dec 2019
Potential Impact None Slight Moderate High
Time0251Z 06/04Z 06/05Z 06/06Z 06/07Z 06/08Z 06/09Z 06/10Z 06/11Z 06/12Z 06/13Z 06/14Z 06/15Z 06/16Z>>
Type OBS PRVL PRVL PRVL PRVL PRVL PRVL PRVL PRVL PRVL PRVL PRVL PRVL PRVL
VIS 10 >6 >6 >6 3 >6 >6 >6 >6 >6 >6 >6 >6 >6
CIG -- 250 250 250 7 -- -- -- -- -- -- -- -- --
Cover SCT BKN BKN BKN BKN SCT SCT SCT FEW FEW FEW FEW FEW FEW
FltCat VFR VFR VFR VFR IFR VFR VFR VFR VFR VFR VFR VFR VFR VFR
WX -- -- -- -- BR -- -- -- -- -- -- -- -- --
WDir VRB 170 170 170 220 300 300 300 350 350 350 350 350 350
WSpd 0 4 4 4 4 6 6 6 12 12 12 12 12 12
WGst -- -- -- -- -- -- -- -- -- -- -- -- -- --
Raw TAF
KSAT 052332Z 0600/0706 17004KT P6SM BKN250
  FM060700 22004KT 3SM BR BKN007
  FM060800 30006KT P6SM SCT250
  FM061100 35012KT P6SM FEW250
  FM062200 35010KT P6SM FEW250
  FM070000 36006KT P6SM SKC


Raw METAR
KSAT 060251Z 00000KT 10SM FEW180 SCT250 16/14 A2999 RMK AO2 SLP144 T01610139 51012
KSAT 060151Z 32004KT 10SM FEW180 SCT250 17/14 A2998 RMK AO2 SLP140 T01670144
KSAT 060051Z 00000KT 10SM FEW180 SCT250 19/15 A2997 RMK AO2 SLP137 T01890150

METAR Board
Radar Display
Forecast Discussion
For situational awareness. Not to be used for flight planning purposes.